createdAt,value
2019-03-27T00:00:52.420Z,0.53
2019-03-27T00:03:23.396Z,0.47
2019-03-27T00:05:53.889Z,0.36
2019-03-27T00:08:24.515Z,0.26
2019-03-27T00:10:55.107Z,0.22
2019-03-27T00:13:25.625Z,0.18
2019-03-27T00:15:56.665Z,0.15
2019-03-27T00:18:27.187Z,0.10
2019-03-27T00:20:57.742Z,0.08
2019-03-27T00:23:28.267Z,0.09
2019-03-27T00:25:58.892Z,0.06
2019-03-27T00:28:29.491Z,0.08
2019-03-27T00:31:00.032Z,0.05
2019-03-27T00:33:30.597Z,0.03
2019-03-27T00:36:01.087Z,0.00
2019-03-27T00:38:31.652Z,-0.02
2019-03-27T00:41:02.225Z,-0.06
2019-03-27T00:43:32.751Z,-0.09
2019-03-27T00:46:03.305Z,0.03
2019-03-27T00:48:33.856Z,0.11
2019-03-27T00:51:04.336Z,0.07
2019-03-27T00:53:34.776Z,0.03
2019-03-27T00:56:05.529Z,-0.01
2019-03-27T00:58:36.110Z,-0.06
2019-03-27T01:01:08.885Z,-0.11
2019-03-27T01:03:39.339Z,-0.12
2019-03-27T01:06:09.970Z,-0.15
2019-03-27T01:08:40.432Z,-0.19
2019-03-27T01:11:11.008Z,-0.25
2019-03-27T01:13:41.639Z,-0.29
2019-03-27T01:16:12.125Z,-0.28
2019-03-27T01:18:42.675Z,-0.23
2019-03-27T01:21:13.220Z,-0.27
2019-03-27T01:23:43.741Z,-0.26
2019-03-27T01:26:14.284Z,-0.19
2019-03-27T01:28:44.813Z,-0.25
2019-03-27T01:31:15.387Z,-0.35
2019-03-27T01:33:47.451Z,-0.44
2019-03-27T01:36:18.104Z,-0.51
2019-03-27T01:38:48.627Z,-0.57
2019-03-27T01:41:19.217Z,-0.64
2019-03-27T01:43:49.765Z,-0.64
2019-03-27T01:46:20.460Z,-0.68
2019-03-27T01:48:51.046Z,-0.74
2019-03-27T01:51:21.665Z,-0.78
2019-03-27T01:53:52.338Z,-0.78
2019-03-27T01:56:22.966Z,-0.81
2019-03-27T01:58:53.503Z,-1.01
2019-03-27T02:01:24.052Z,-1.01
2019-03-27T02:03:54.568Z,-0.94
2019-03-27T02:06:25.204Z,-1.05
2019-03-27T02:08:55.816Z,-1.00
2019-03-27T02:11:26.372Z,-0.97
2019-03-27T02:13:56.970Z,-1.03
2019-03-27T02:16:27.589Z,-1.06
2019-03-27T02:18:58.067Z,-1.30
2019-03-27T02:21:28.605Z,-1.18
2019-03-27T02:23:59.090Z,-1.15
2019-03-27T02:26:29.842Z,-1.15
2019-03-27T02:29:00.473Z,-1.29
2019-03-27T02:31:31.114Z,-1.15
2019-03-27T02:34:01.748Z,-1.13
2019-03-27T02:36:32.362Z,-1.18
2019-03-27T02:39:03.417Z,-1.18
2019-03-27T02:41:35.043Z,-1.19
2019-03-27T02:44:06.694Z,-1.19
2019-03-27T02:46:37.191Z,-1.23
2019-03-27T02:49:07.678Z,-1.24
2019-03-27T02:51:38.440Z,-1.27
2019-03-27T02:54:09.029Z,-1.28
2019-03-27T02:56:39.587Z,-1.26
2019-03-27T02:59:10.263Z,-1.26
2019-03-27T03:01:40.904Z,-1.35
2019-03-27T03:04:11.363Z,-1.34
2019-03-27T03:06:42.000Z,-1.37
2019-03-27T03:09:13.115Z,-1.38
2019-03-27T03:11:43.675Z,-1.43
2019-03-27T03:14:14.447Z,-1.43
2019-03-27T03:16:45.186Z,-1.46
2019-03-27T03:19:15.698Z,-1.53
2019-03-27T03:21:46.212Z,-1.49
2019-03-27T03:24:16.684Z,-1.53
2019-03-27T03:26:51.006Z,-1.58
2019-03-27T03:29:19.479Z,-1.61
2019-03-27T03:31:50.065Z,-1.63
2019-03-27T03:34:20.533Z,-1.66
2019-03-27T03:36:51.330Z,-1.66
2019-03-27T03:39:21.870Z,-1.68
2019-03-27T03:41:52.511Z,-1.67
2019-03-27T03:44:23.076Z,-1.68
2019-03-27T03:47:00.113Z,-1.69
2019-03-27T03:49:25.875Z,-1.73
2019-03-27T03:51:56.602Z,-1.78
2019-03-27T03:54:27.128Z,-1.79
2019-03-27T03:56:57.683Z,-1.80
2019-03-27T03:59:29.204Z,-1.80
2019-03-27T04:02:02.861Z,-1.75
2019-03-27T04:04:33.307Z,-1.74
2019-03-27T04:07:03.871Z,-1.73
2019-03-27T04:09:34.327Z,-1.67
2019-03-27T04:12:04.844Z,-1.72
2019-03-27T04:14:35.352Z,-1.71
2019-03-27T04:17:17.167Z,-1.70
2019-03-27T04:19:39.264Z,-1.74
2019-03-27T04:22:09.854Z,-1.76
2019-03-27T04:24:40.392Z,-1.76
2019-03-27T04:27:10.844Z,-1.81
2019-03-27T04:29:41.367Z,-1.84
2019-03-27T04:32:11.849Z,-1.87
2019-03-27T04:34:46.843Z,-1.84
2019-03-27T04:37:15.637Z,-1.86
2019-03-27T04:39:46.244Z,-1.87
2019-03-27T04:42:16.732Z,-1.82
2019-03-27T04:44:47.281Z,-1.84
2019-03-27T04:47:31.447Z,-1.86
2019-03-27T04:49:51.119Z,-1.88
2019-03-27T04:52:22.780Z,-1.86
2019-03-27T04:54:53.227Z,-1.82
2019-03-27T04:57:23.715Z,-1.79
2019-03-27T04:59:54.229Z,-1.76
2019-03-27T05:02:24.846Z,-1.71
2019-03-27T05:04:55.870Z,-1.62
2019-03-27T05:07:26.430Z,-1.60
2019-03-27T05:09:56.959Z,-1.54
2019-03-27T05:12:28.451Z,-1.46
2019-03-27T05:15:00.072Z,-1.38
2019-03-27T05:17:30.704Z,-1.33
2019-03-27T05:20:01.255Z,-1.28
2019-03-27T05:22:32.882Z,-1.20
2019-03-27T05:25:03.779Z,-1.16
2019-03-27T05:27:36.488Z,-1.09
2019-03-27T05:30:07.354Z,-1.04
2019-03-27T05:32:38.198Z,-0.99
2019-03-27T05:35:09.051Z,-0.88
2019-03-27T05:37:39.665Z,-0.73
2019-03-27T05:40:10.371Z,-0.56
2019-03-27T05:42:41.024Z,-0.42
2019-03-27T05:45:11.938Z,-0.22
2019-03-27T05:47:42.747Z,-0.10
2019-03-27T05:50:13.326Z,0.02
2019-03-27T05:52:44.062Z,0.10
2019-03-27T05:55:15.316Z,0.23
2019-03-27T05:57:47.842Z,0.36
2019-03-27T06:00:19.022Z,0.43
2019-03-27T06:02:49.750Z,0.55
2019-03-27T06:05:20.380Z,0.63
2019-03-27T06:07:51.124Z,0.70
2019-03-27T06:10:22.254Z,0.86
2019-03-27T06:12:53.123Z,0.85
2019-03-27T06:15:23.766Z,1.09
2019-03-27T06:17:55.019Z,1.18
2019-03-27T06:20:25.653Z,1.30
2019-03-27T06:22:56.221Z,1.38
2019-03-27T06:25:28.805Z,1.46
2019-03-27T06:28:00.076Z,1.56
2019-03-27T06:30:30.814Z,1.66
2019-03-27T06:33:01.288Z,1.77
2019-03-27T06:35:31.878Z,1.87
2019-03-27T06:38:02.457Z,1.98
2019-03-27T06:40:33.004Z,2.07
2019-03-27T06:43:03.561Z,2.12
2019-03-27T06:45:34.171Z,2.22
2019-03-27T06:48:04.714Z,2.29
2019-03-27T06:50:35.156Z,2.38
2019-03-27T06:53:05.723Z,2.47
2019-03-27T06:55:36.235Z,2.54
2019-03-27T06:58:06.847Z,2.61
2019-03-27T07:00:38.048Z,2.64
2019-03-27T07:03:08.650Z,2.76
2019-03-27T07:05:39.108Z,2.82
2019-03-27T07:08:09.660Z,2.94
2019-03-27T07:10:40.162Z,3.04
2019-03-27T07:13:10.711Z,3.09
2019-03-27T07:15:41.265Z,3.25
2019-03-27T07:18:11.746Z,3.36
2019-03-27T07:20:42.352Z,3.47
2019-03-27T07:23:12.900Z,3.62
2019-03-27T07:25:43.454Z,3.77
2019-03-27T07:28:14.008Z,3.89
2019-03-27T07:30:44.506Z,4.00
2019-03-27T07:33:14.966Z,4.07
2019-03-27T07:35:45.434Z,4.15
2019-03-27T07:38:16.034Z,4.23
2019-03-27T07:40:46.636Z,4.35
2019-03-27T07:43:17.225Z,4.55
2019-03-27T07:45:47.807Z,4.67
2019-03-27T07:48:18.340Z,4.81
2019-03-27T07:50:48.849Z,4.84
2019-03-27T07:53:22.294Z,4.89
2019-03-27T07:55:51.510Z,5.07
2019-03-27T07:58:22.060Z,5.21
2019-03-27T08:00:52.536Z,5.25
2019-03-27T08:03:23.060Z,5.39
2019-03-27T08:05:53.536Z,5.53
2019-03-27T08:08:24.165Z,5.72
2019-03-27T08:10:54.588Z,5.76
2019-03-27T08:13:25.069Z,5.90
2019-03-27T08:15:55.517Z,6.03
2019-03-27T08:18:25.974Z,6.11
2019-03-27T08:20:56.504Z,6.18
2019-03-27T08:23:27.064Z,6.23
2019-03-27T08:25:57.731Z,6.35
2019-03-27T08:28:28.190Z,6.47
2019-03-27T08:30:58.762Z,6.60
2019-03-27T08:33:29.303Z,6.63
2019-03-27T08:35:59.721Z,6.65
2019-03-27T08:38:31.294Z,6.73
2019-03-27T08:41:01.817Z,6.68
2019-03-27T08:43:32.326Z,6.72
2019-03-27T08:46:02.835Z,6.95
2019-03-27T08:48:33.300Z,6.92
2019-03-27T08:51:03.751Z,6.98
2019-03-27T08:53:34.308Z,7.14
2019-03-27T08:56:04.803Z,7.20
2019-03-27T08:58:35.326Z,7.21
2019-03-27T09:01:05.812Z,7.34
2019-03-27T09:03:36.342Z,7.42
2019-03-27T09:06:06.858Z,7.50
2019-03-27T09:08:37.380Z,7.65
2019-03-27T09:11:07.822Z,7.63
2019-03-27T09:13:38.351Z,7.66
2019-03-27T09:16:08.882Z,7.81
2019-03-27T09:18:39.422Z,7.97
2019-03-27T09:21:09.866Z,7.99
2019-03-27T09:23:40.385Z,7.97
2019-03-27T09:26:10.987Z,8.00
2019-03-27T09:28:41.582Z,8.05
2019-03-27T09:31:12.213Z,8.13
2019-03-27T09:33:42.750Z,8.21
2019-03-27T09:36:13.191Z,8.17
2019-03-27T09:38:43.720Z,8.42
2019-03-27T09:41:14.229Z,8.45
2019-03-27T09:43:45.842Z,8.39
2019-03-27T09:46:16.439Z,8.38
2019-03-27T09:48:46.967Z,8.47
2019-03-27T09:51:17.382Z,8.70
2019-03-27T09:53:48.050Z,8.61
2019-03-27T09:56:19.798Z,8.67
2019-03-27T09:58:50.308Z,8.59
2019-03-27T10:01:20.813Z,8.81
2019-03-27T10:03:52.329Z,8.97
2019-03-27T10:06:22.788Z,8.99
2019-03-27T10:08:53.361Z,9.07
2019-03-27T10:11:24.025Z,9.30
2019-03-27T10:13:54.551Z,9.35
2019-03-27T10:16:25.090Z,9.30
2019-03-27T10:18:55.663Z,9.26
2019-03-27T10:21:26.161Z,9.32
2019-03-27T10:24:06.348Z,9.44
2019-03-27T10:27:06.725Z,9.53
2019-03-27T10:29:41.925Z,9.42
2019-03-27T10:32:12.503Z,9.31
2019-03-27T10:34:43.159Z,9.54
2019-03-27T10:37:14.404Z,9.76
2019-03-27T10:39:46.128Z,10.08
2019-03-27T10:42:16.859Z,10.11
2019-03-27T10:44:47.350Z,10.43
2019-03-27T10:47:18.098Z,10.59
2019-03-27T10:49:48.646Z,10.83
2019-03-27T10:52:19.249Z,11.08
2019-03-27T10:54:49.796Z,10.96
2019-03-27T10:57:20.471Z,11.24
2019-03-27T10:59:51.121Z,11.50
2019-03-27T11:02:21.689Z,11.87
2019-03-27T11:04:52.262Z,11.77
2019-03-27T11:07:22.748Z,11.74
2019-03-27T11:09:53.369Z,11.73
2019-03-27T11:12:24.062Z,11.64
2019-03-27T11:14:54.591Z,11.58
2019-03-27T11:17:25.452Z,11.53
2019-03-27T11:19:55.944Z,11.78
2019-03-27T11:22:26.573Z,11.80
2019-03-27T11:24:57.567Z,11.73
2019-03-27T11:27:28.119Z,11.14
2019-03-27T11:29:58.681Z,10.83
2019-03-27T11:32:29.493Z,11.06
2019-03-27T11:34:59.976Z,11.90
2019-03-27T11:41:34.576Z,12.89
2019-03-27T11:47:53.634Z,12.22
2019-03-27T11:50:27.121Z,12.55
2019-03-27T11:52:57.517Z,12.59
2019-03-27T11:55:27.987Z,12.46
2019-03-27T11:57:58.444Z,12.27
2019-03-27T12:00:28.970Z,12.02
2019-03-27T12:02:59.615Z,11.54
2019-03-27T12:05:30.323Z,11.75
2019-03-27T12:08:00.906Z,11.57
2019-03-27T12:10:31.568Z,11.69
2019-03-27T12:13:02.154Z,11.78
2019-03-27T12:15:40.823Z,11.75
2019-03-27T12:18:16.420Z,11.64
2019-03-27T12:21:06.267Z,11.71
2019-03-27T12:24:00.922Z,11.16
2019-03-27T12:26:58.022Z,11.00
2019-03-27T12:29:55.591Z,11.00
2019-03-27T12:32:42.693Z,10.93
2019-03-27T12:35:33.439Z,11.08
2019-03-27T12:38:09.074Z,11.31
2019-03-27T12:40:41.474Z,11.14
2019-03-27T12:43:16.078Z,10.71
2019-03-27T12:45:48.448Z,10.49
2019-03-27T12:48:18.952Z,10.58
2019-03-27T12:50:49.484Z,10.81
2019-03-27T12:53:20.091Z,10.86
2019-03-27T12:56:19.696Z,10.82
2019-03-27T13:02:30.796Z,10.39
2019-03-27T13:05:02.866Z,10.20
2019-03-27T13:07:34.472Z,10.16
2019-03-27T13:10:23.877Z,10.11
2019-03-27T13:12:55.824Z,10.19
2019-03-27T13:15:26.820Z,10.40
2019-03-27T13:17:57.421Z,10.83
2019-03-27T13:20:27.963Z,11.36
2019-03-27T13:22:58.465Z,11.21
2019-03-27T13:25:29.003Z,11.09
2019-03-27T13:27:59.544Z,10.78
2019-03-27T13:30:29.981Z,10.69
2019-03-27T13:33:00.790Z,10.51
2019-03-27T13:35:31.345Z,10.34
2019-03-27T13:38:01.969Z,10.29
2019-03-27T13:40:32.474Z,10.31
2019-03-27T13:43:02.889Z,10.38
2019-03-27T13:45:33.414Z,10.59
2019-03-27T13:48:04.010Z,10.85
2019-03-27T13:50:34.530Z,10.83
2019-03-27T13:53:05.065Z,11.20
2019-03-27T13:55:35.718Z,11.28
2019-03-27T13:58:06.391Z,11.36
2019-03-27T14:00:36.909Z,11.57
2019-03-27T14:03:07.411Z,11.31
2019-03-27T14:05:38.081Z,11.29
2019-03-27T14:08:08.521Z,11.13
2019-03-27T14:10:39.058Z,10.80
2019-03-27T14:13:09.551Z,10.53
2019-03-27T14:15:40.217Z,10.43
2019-03-27T14:18:10.666Z,10.51
2019-03-27T14:20:41.359Z,10.70
2019-03-27T14:23:11.862Z,11.19
2019-03-27T14:25:42.368Z,11.66
2019-03-27T14:28:17.472Z,11.86
2019-03-27T14:30:55.564Z,12.64
2019-03-27T14:33:26.026Z,12.81
2019-03-27T14:35:56.544Z,13.47
2019-03-27T14:38:27.114Z,12.96
2019-03-27T14:40:57.646Z,12.89
2019-03-27T14:43:28.163Z,12.37
2019-03-27T14:46:15.604Z,11.96
2019-03-27T14:49:12.314Z,11.62
2019-03-27T14:52:08.151Z,11.39
2019-03-27T14:54:43.617Z,11.10
2019-03-27T14:57:16.336Z,10.78
2019-03-27T14:59:53.766Z,10.69
2019-03-27T15:02:37.665Z,10.55
2019-03-27T15:05:31.033Z,10.35
2019-03-27T15:08:10.663Z,10.34
2019-03-27T15:10:43.615Z,10.25
2019-03-27T15:13:15.403Z,10.17
2019-03-27T15:15:46.083Z,10.16
2019-03-27T15:18:16.535Z,10.11
2019-03-27T15:20:47.085Z,10.17
2019-03-27T15:23:17.540Z,10.23
2019-03-27T15:25:47.987Z,10.29
2019-03-27T15:28:18.935Z,10.29
2019-03-27T15:30:49.448Z,10.39
2019-03-27T15:33:22.804Z,10.46
2019-03-27T15:35:53.318Z,10.44
2019-03-27T15:38:23.831Z,10.29
2019-03-27T15:40:54.271Z,10.35
2019-03-27T15:43:24.791Z,10.38
2019-03-27T15:45:55.328Z,10.38
2019-03-27T15:48:26.157Z,10.42
2019-03-27T15:50:58.907Z,10.45
2019-03-27T15:53:28.891Z,10.56
2019-03-27T15:55:59.490Z,10.33
2019-03-27T15:58:29.930Z,10.24
2019-03-27T16:01:00.383Z,10.14
2019-03-27T16:03:30.972Z,10.13
2019-03-27T16:06:01.417Z,10.13
2019-03-27T16:08:31.876Z,10.15
2019-03-27T16:11:02.380Z,10.13
2019-03-27T16:13:32.862Z,10.19
2019-03-27T16:16:03.394Z,10.14
2019-03-27T16:18:34.012Z,10.10
2019-03-27T16:21:05.478Z,10.11
2019-03-27T16:23:37.038Z,10.12
2019-03-27T16:26:07.695Z,10.11
2019-03-27T16:28:38.239Z,10.24
2019-03-27T16:31:08.743Z,10.15
2019-03-27T16:33:39.379Z,10.19
2019-03-27T16:36:09.977Z,10.16
2019-03-27T16:38:40.633Z,10.19
2019-03-27T16:41:11.072Z,10.34
2019-03-27T16:43:44.205Z,10.29
2019-03-27T16:46:14.041Z,10.18
2019-03-27T16:48:45.280Z,9.99
2019-03-27T16:51:15.719Z,9.84
2019-03-27T16:53:47.867Z,9.84
2019-03-27T16:56:18.357Z,9.72
2019-03-27T16:58:48.894Z,9.63
2019-03-27T17:01:19.942Z,9.67
2019-03-27T17:03:50.642Z,9.58
2019-03-27T17:06:21.706Z,9.58
2019-03-27T17:08:52.328Z,9.51
2019-03-27T17:11:22.903Z,9.52
2019-03-27T17:13:53.618Z,9.54
2019-03-27T17:16:24.386Z,9.45
2019-03-27T17:18:55.354Z,9.48
2019-03-27T17:21:26.057Z,9.40
2019-03-27T17:23:56.851Z,9.42
2019-03-27T17:26:27.644Z,9.40
2019-03-27T17:28:58.261Z,9.42
2019-03-27T17:31:29.008Z,9.44
2019-03-27T17:33:59.747Z,9.47
2019-03-27T17:36:30.507Z,9.46
2019-03-27T17:39:01.282Z,9.45
2019-03-27T17:41:33.743Z,9.49
2019-03-27T17:44:26.710Z,9.48
2019-03-27T17:47:07.329Z,9.45
2019-03-27T17:49:46.080Z,9.44
2019-03-27T17:52:18.469Z,9.43
2019-03-27T17:54:49.324Z,9.34
2019-03-27T17:57:20.202Z,9.40
2019-03-27T17:59:51.282Z,9.39
2019-03-27T18:02:21.775Z,9.38
2019-03-27T18:04:52.271Z,9.33
2019-03-27T18:07:23.353Z,9.33
2019-03-27T18:09:54.055Z,9.31
2019-03-27T18:12:24.734Z,9.30
2019-03-27T18:14:56.764Z,9.27
2019-03-27T18:17:27.264Z,9.27
2019-03-27T18:19:58.401Z,9.28
2019-03-27T18:22:29.314Z,9.26
2019-03-27T18:25:00.595Z,9.28
2019-03-27T18:27:31.440Z,9.29
2019-03-27T18:30:02.183Z,9.25
2019-03-27T18:32:34.553Z,9.27
2019-03-27T18:35:06.771Z,9.28
2019-03-27T18:37:38.467Z,9.22
2019-03-27T18:40:09.478Z,9.23
2019-03-27T18:42:40.825Z,9.23
2019-03-27T18:45:11.718Z,9.22
2019-03-27T18:47:42.309Z,9.24
2019-03-27T18:50:12.938Z,9.25
2019-03-27T18:52:43.970Z,9.21
2019-03-27T18:55:25.758Z,9.25
2019-03-27T18:57:59.494Z,9.26
2019-03-27T19:00:18.939Z,9.25
2019-03-27T19:02:49.472Z,9.27
2019-03-27T19:05:20.087Z,9.28
2019-03-27T19:07:50.542Z,9.26
2019-03-27T19:10:21.047Z,9.26
2019-03-27T19:12:51.564Z,9.20
2019-03-27T19:15:22.102Z,9.13
2019-03-27T19:18:07.388Z,9.16
2019-03-27T19:20:38.732Z,9.11
2019-03-27T19:23:10.701Z,8.99
2019-03-27T19:25:41.523Z,8.91
2019-03-27T19:28:12.018Z,8.88
2019-03-27T19:30:42.588Z,8.84
2019-03-27T19:33:13.088Z,8.83
2019-03-27T19:35:43.566Z,8.82
2019-03-27T19:38:14.120Z,8.80
2019-03-27T19:40:44.703Z,8.86
2019-03-27T19:43:15.123Z,8.83
2019-03-27T19:45:46.738Z,8.81
2019-03-27T19:48:17.501Z,8.84
2019-03-27T19:50:48.320Z,8.79
2019-03-27T19:53:18.944Z,8.72
2019-03-27T19:55:49.429Z,8.71
2019-03-27T19:58:19.912Z,8.70
2019-03-27T20:00:50.595Z,8.67
2019-03-27T20:03:21.090Z,8.65
2019-03-27T20:05:51.557Z,8.59
2019-03-27T20:08:22.432Z,8.49
2019-03-27T20:13:47.500Z,8.40
2019-03-27T20:16:18.158Z,8.30
2019-03-27T20:18:53.821Z,8.35
2019-03-27T20:21:24.363Z,8.27
2019-03-27T20:23:55.006Z,8.29
2019-03-27T20:26:25.618Z,8.27
2019-03-27T20:28:56.199Z,8.24
2019-03-27T20:31:26.691Z,8.24
2019-03-27T20:33:57.230Z,8.23
2019-03-27T20:36:27.784Z,8.22
2019-03-27T20:38:58.244Z,8.20
2019-03-27T20:41:28.788Z,8.17
2019-03-27T20:43:59.318Z,8.19
2019-03-27T20:46:29.877Z,8.18
2019-03-27T20:49:00.399Z,8.20
2019-03-27T20:51:30.953Z,8.21
2019-03-27T20:54:01.704Z,8.20
2019-03-27T20:56:32.251Z,8.23
2019-03-27T20:59:02.852Z,8.22
2019-03-27T21:01:33.421Z,8.20
2019-03-27T21:04:04.013Z,8.22
2019-03-27T21:06:35.403Z,8.28
2019-03-27T21:09:06.326Z,8.30
2019-03-27T21:11:37.218Z,8.33
2019-03-27T21:14:07.734Z,8.33
2019-03-27T21:16:38.211Z,8.27
2019-03-27T21:19:08.742Z,8.32
2019-03-27T21:21:41.794Z,8.36
2019-03-27T21:24:12.453Z,8.37
2019-03-27T21:26:44.730Z,8.34
2019-03-27T21:29:17.795Z,8.39
2019-03-27T21:31:48.526Z,8.32
2019-03-27T21:34:20.365Z,8.41
2019-03-27T21:36:50.989Z,8.43
2019-03-27T21:39:21.512Z,8.40
2019-03-27T21:41:52.139Z,8.41
2019-03-27T21:44:22.743Z,8.41
2019-03-27T21:46:56.185Z,8.45
2019-03-27T21:49:26.652Z,8.46
2019-03-27T21:51:57.202Z,8.50
2019-03-27T21:54:27.724Z,8.45
2019-03-27T21:56:58.296Z,8.43
2019-03-27T21:59:31.828Z,8.44
2019-03-27T22:02:02.381Z,8.43
2019-03-27T22:04:32.931Z,8.46
2019-03-27T22:07:03.648Z,8.49
2019-03-27T22:09:34.196Z,8.47
2019-03-27T22:12:04.759Z,8.48
2019-03-27T22:14:35.222Z,8.50
2019-03-27T22:17:05.775Z,8.48
2019-03-27T22:19:36.399Z,8.51
2019-03-27T22:22:07.031Z,8.54
2019-03-27T22:24:37.623Z,8.51
2019-03-27T22:27:08.199Z,8.56
2019-03-27T22:29:38.650Z,8.59
2019-03-27T22:32:09.206Z,8.55
2019-03-27T22:34:39.715Z,8.61
2019-03-27T22:37:10.266Z,8.61
2019-03-27T22:39:40.795Z,8.65
2019-03-27T22:42:11.287Z,8.61
2019-03-27T22:44:41.802Z,8.65
2019-03-27T22:47:12.342Z,8.64
2019-03-27T22:49:43.019Z,8.64
2019-03-27T22:52:13.553Z,8.60
2019-03-27T22:54:44.111Z,8.65
2019-03-27T22:57:14.734Z,8.65
2019-03-27T22:59:45.260Z,8.65
2019-03-27T23:02:15.866Z,8.64
2019-03-27T23:04:46.385Z,8.68
2019-03-27T23:07:16.887Z,8.64
2019-03-27T23:09:47.587Z,8.67
2019-03-27T23:12:18.117Z,8.66
2019-03-27T23:14:48.570Z,8.64
2019-03-27T23:17:19.073Z,8.64
2019-03-27T23:19:51.283Z,8.63
2019-03-27T23:22:22.074Z,8.66
2019-03-27T23:24:52.594Z,8.64
2019-03-27T23:27:23.129Z,8.70
2019-03-27T23:29:53.643Z,8.72
2019-03-27T23:32:24.214Z,8.69
2019-03-27T23:34:54.744Z,8.72
2019-03-27T23:37:25.276Z,8.67
2019-03-27T23:39:55.799Z,8.61
2019-03-27T23:42:26.388Z,8.62
2019-03-27T23:44:57.038Z,8.59
2019-03-27T23:47:27.593Z,8.59
2019-03-27T23:49:58.109Z,8.55
2019-03-27T23:52:28.590Z,8.56
2019-03-27T23:54:59.110Z,8.55
2019-03-27T23:57:29.730Z,8.58
